Time;durP1;ratioP1;P1;durP2;ratioP2;P2;SDS_P1;SDS_P2;PMS_P1;PMS_P2;Temp;Humidity;BMP_temperature;BMP_pressure;BME280_temperature;BME280_humidity;BME280_pressure;Samples;Min_cycle;Max_cycle;Signal;HPM_P1;HPM_P2
2021/07/27 00:02:08;;;;;;;58.50;2.80;;;16.00;29.50;;;;;;5054655;28;20541;-72
2021/07/27 00:04:35;;;;;;;58.27;2.70;;;16.00;29.20;;;;;;5055148;28;22549;-72
2021/07/27 00:07:02;;;;;;;58.17;3.00;;;16.00;29.40;;;;;;5054993;28;20496;-72
2021/07/27 00:09:30;;;;;;;58.07;2.60;;;15.90;29.20;;;;;;5054323;28;20456;-72
2021/07/27 00:11:57;;;;;;;58.37;2.70;;;15.90;29.80;;;;;;5071430;28;20545;-72
2021/07/27 00:14:24;;;;;;;58.17;2.80;;;15.90;30.70;;;;;;5054987;28;20531;-72
2021/07/27 00:16:50;;;;;;;58.03;2.63;;;15.90;31.50;;;;;;5055066;28;20484;-72
2021/07/27 00:19:17;;;;;;;58.03;2.60;;;15.80;31.50;;;;;;5054826;28;20537;-72
2021/07/27 00:21:44;;;;;;;59.47;4.27;;;15.80;34.00;;;;;;5054361;28;20559;-72
2021/07/27 00:24:11;;;;;;;57.97;2.63;;;15.80;36.00;;;;;;5054587;28;20489;-72
2021/07/27 00:26:39;;;;;;;58.03;2.90;;;15.80;36.30;;;;;;5054785;28;20501;-72
2021/07/27 00:29:06;;;;;;;58.77;2.80;;;15.80;36.30;;;;;;5054774;28;20542;-72
2021/07/27 00:31:33;;;;;;;58.50;2.90;;;15.70;37.00;;;;;;5054421;28;20507;-72
2021/07/27 00:34:00;;;;;;;58.37;2.70;;;15.70;38.30;;;;;;5054633;28;20876;-72
2021/07/27 00:36:27;;;;;;;58.60;3.30;;;15.70;38.30;;;;;;5054491;28;20504;-72
2021/07/27 00:38:54;;;;;;;58.07;2.70;;;15.60;38.60;;;;;;5054307;28;21014;-72
2021/07/27 00:41:20;;;;;;;58.20;2.70;;;15.60;40.00;;;;;;5053004;28;20497;-72
2021/07/27 00:43:48;;;;;;;58.27;2.70;;;15.60;41.10;;;;;;5063336;28;20448;-72
2021/07/27 00:46:15;;;;;;;58.07;2.80;;;15.60;43.50;;;;;;5074621;28;20907;-72
2021/07/27 00:48:42;;;;;;;58.13;2.60;;;15.50;42.90;;;;;;5074262;28;20486;-72
2021/07/27 00:51:09;;;;;;;58.57;2.80;;;15.50;45.30;;;;;;5074181;28;20527;-72
2021/07/27 00:53:36;;;;;;;58.17;2.67;;;15.50;46.20;;;;;;5073861;28;20541;-72
2021/07/27 00:56:05;;;;;;;58.10;2.83;;;15.50;47.80;;;;;;5074032;28;20471;-72
2021/07/27 00:58:32;;;;;;;58.50;3.00;;;15.50;50.10;;;;;;5074244;28;20476;-72
2021/07/27 01:01:00;;;;;;;58.43;3.10;;;15.50;52.70;;;;;;5074055;28;20468;-72
2021/07/27 01:03:27;;;;;;;58.07;2.70;;;15.50;55.30;;;;;;5072888;28;20510;-72
2021/07/27 01:05:54;;;;;;;58.27;2.80;;;15.50;56.90;;;;;;5073668;28;20562;-72
2021/07/27 01:08:21;;;;;;;58.03;2.90;;;15.50;57.10;;;;;;5074240;28;20880;-72
2021/07/27 01:10:47;;;;;;;58.30;2.70;;;15.50;57.50;;;;;;5073946;28;20884;-72
2021/07/27 01:13:14;;;;;;;58.20;2.53;;;15.50;60.10;;;;;;5071972;28;20457;-72
2021/07/27 01:15:41;;;;;;;58.17;2.70;;;15.40;58.10;;;;;;5073613;28;20491;-72
2021/07/27 01:18:16;;;;;;;58.30;2.60;;;15.50;57.90;;;;;;5073716;28;20488;-72
2021/07/27 01:20:57;;;;;;;58.20;2.70;;;15.40;56.30;;;;;;5073549;28;20487;-72
2021/07/27 01:37:34;;;;;;;58.60;2.83;;;15.20;49.30;;;;;;5073285;28;20478;-73
2021/07/27 01:40:03;;;;;;;58.30;2.97;;;15.10;50.00;;;;;;5073461;28;20455;-73
2021/07/27 01:42:34;;;;;;;58.03;2.60;;;15.10;52.60;;;;;;5072257;28;20951;-73
2021/07/27 01:45:06;;;;;;;58.67;2.70;;;15.00;54.80;;;;;;5055960;28;20979;-73
2021/07/27 01:47:33;;;;;;;58.33;2.77;;;15.00;57.20;;;;;;5073109;28;20454;-73
2021/07/27 01:50:00;;;;;;;58.90;2.90;;;15.00;59.60;;;;;;5073369;28;20804;-73
2021/07/27 01:52:27;;;;;;;59.47;2.80;;;14.90;61.20;;;;;;5072920;28;20455;-72
2021/07/27 01:54:55;;;;;;;58.47;2.70;;;14.90;62.90;;;;;;5073082;28;20892;-72
2021/07/27 01:57:27;;;;;;;58.23;2.50;;;14.90;63.80;;;;;;5073066;28;20454;-73
2021/07/27 02:00:04;;;;;;;58.17;2.70;;;14.90;65.20;;;;;;5072799;28;20452;-73
2021/07/27 02:02:31;;;;;;;58.27;2.70;;;14.90;66.30;;;;;;5072687;28;20930;-73
2021/07/27 02:04:58;;;;;;;58.23;2.77;;;14.80;67.20;;;;;;5072792;28;20522;-73
2021/07/27 02:07:24;;;;;;;58.07;2.60;;;14.80;68.50;;;;;;5072854;28;20534;-73
2021/07/27 02:09:58;;;;;;;58.60;3.10;;;14.80;69.20;;;;;;5072775;28;20814;-73
2021/07/27 02:12:35;;;;;;;58.40;2.80;;;14.80;71.50;;;;;;5072341;28;20930;-73
2021/07/27 02:15:17;;;;;;;58.37;2.90;;;14.80;74.50;;;;;;5071225;28;20468;-73
2021/07/27 02:17:45;;;;;;;58.80;3.50;;;14.90;77.80;;;;;;5055415;28;20544;-73
2021/07/27 02:20:12;;;;;;;58.67;3.00;;;14.80;79.50;;;;;;5052655;28;20448;-73
2021/07/27 02:22:40;;;;;;;58.13;2.80;;;14.90;81.20;;;;;;5052302;28;20455;-73
2021/07/27 02:25:08;;;;;;;58.17;2.67;;;14.90;82.90;;;;;;5052131;28;21027;-73
2021/07/27 02:27:36;;;;;;;58.47;2.70;;;14.90;84.20;;;;;;5052527;28;20888;-73
2021/07/27 02:30:06;;;;;;;58.30;2.70;;;14.90;84.10;;;;;;5052436;28;20882;-73
2021/07/27 02:32:33;;;;;;;58.37;2.90;;;14.90;84.50;;;;;;5051959;28;20539;-73
2021/07/27 02:35:00;;;;;;;57.93;2.83;;;14.90;84.70;;;;;;5052219;28;20464;-73
2021/07/27 02:37:27;;;;;;;58.17;2.80;;;14.90;85.10;;;;;;5052159;28;20536;-73
2021/07/27 02:39:54;;;;;;;58.40;3.00;;;14.90;84.80;;;;;;5052291;28;20448;-73
2021/07/27 02:42:21;;;;;;;58.13;2.63;;;14.90;85.00;;;;;;5052072;28;20475;-73
2021/07/27 02:44:49;;;;;;;57.83;2.70;;;14.90;84.80;;;;;;5050751;28;20594;-73
2021/07/27 02:47:16;;;;;;;58.30;2.90;;;14.90;84.80;;;;;;5057232;28;20480;-73
2021/07/27 02:49:43;;;;;;;58.17;2.70;;;14.90;84.80;;;;;;5071991;28;20447;-73
2021/07/27 02:52:10;;;;;;;58.57;3.40;;;14.90;84.80;;;;;;5071550;28;20896;-73
2021/07/27 02:54:37;;;;;;;58.13;2.70;;;14.90;84.40;;;;;;5071769;28;21154;-73
2021/07/27 02:57:04;;;;;;;58.40;2.77;;;14.80;83.60;;;;;;5072059;28;20448;-73
2021/07/27 02:59:31;;;;;;;58.83;3.00;;;14.80;83.20;;;;;;5071877;28;20454;-73
2021/07/27 03:01:59;;;;;;;58.47;2.70;;;14.70;82.40;;;;;;5071658;28;20564;-73
2021/07/27 03:04:26;;;;;;;58.37;2.80;;;14.70;81.90;;;;;;5071803;28;20542;-73
2021/07/27 03:06:53;;;;;;;58.23;2.70;;;14.70;82.90;;;;;;5071654;28;20571;-73
2021/07/27 03:09:24;;;;;;;57.90;2.70;;;14.70;83.10;;;;;;5071791;28;20964;-73
2021/07/27 03:11:51;;;;;;;58.17;2.87;;;14.70;83.90;;;;;;5071634;28;20452;-73
2021/07/27 03:14:18;;;;;;;58.17;2.70;;;14.70;83.80;;;;;;5072046;28;20447;-73
2021/07/27 03:16:45;;;;;;;58.37;2.80;;;14.70;82.70;;;;;;5070206;28;20447;-73
2021/07/27 03:19:13;;;;;;;58.23;2.50;;;14.70;83.20;;;;;;5071428;28;20907;-73
2021/07/27 03:21:40;;;;;;;58.20;2.63;;;14.70;83.90;;;;;;5071417;28;20936;-73
2021/07/27 03:24:07;;;;;;;58.17;2.63;;;14.70;83.80;;;;;;5071840;28;20530;-73
2021/07/27 03:26:33;;;;;;;58.27;2.60;;;14.70;83.70;;;;;;5074366;28;21010;-73
2021/07/27 03:29:00;;;;;;;58.37;3.13;;;14.70;83.90;;;;;;5078296;28;20744;-73
2021/07/27 03:31:29;;;;;;;57.87;2.60;;;14.70;85.20;;;;;;5078038;28;20533;-73
2021/07/27 03:33:56;;;;;;;58.57;2.90;;;14.70;84.40;;;;;;5078069;28;20474;-73
2021/07/27 03:36:24;;;;;;;58.40;3.30;;;14.70;84.50;;;;;;5078044;28;20537;-73
2021/07/27 03:38:51;;;;;;;58.07;2.60;;;14.70;84.40;;;;;;5078338;28;20476;-73
2021/07/27 03:41:18;;;;;;;58.47;3.40;;;14.70;84.50;;;;;;5078306;28;20448;-73
2021/07/27 03:43:45;;;;;;;58.80;3.20;;;14.70;84.60;;;;;;5077929;28;20452;-73
2021/07/27 03:46:12;;;;;;;57.93;2.80;;;14.80;85.90;;;;;;5077648;28;20489;-73
2021/07/27 03:48:39;;;;;;;58.30;2.77;;;14.80;86.60;;;;;;5076409;28;20786;-73
2021/07/27 03:51:06;;;;;;;58.17;2.57;;;14.80;86.10;;;;;;5078114;28;20466;-73
2021/07/27 03:53:34;;;;;;;58.70;3.00;;;14.80;86.30;;;;;;5077814;28;20965;-73
2021/07/27 03:56:01;;;;;;;58.07;2.50;;;14.80;85.00;;;;;;5078062;28;20913;-73
2021/07/27 03:58:28;;;;;;;58.13;2.60;;;14.70;83.20;;;;;;5078020;28;20958;-73
2021/07/27 04:00:55;;;;;;;58.33;2.80;;;14.70;83.00;;;;;;5077709;28;20542;-73
2021/07/27 04:03:21;;;;;;;58.30;2.70;;;14.70;83.10;;;;;;5077740;28;20570;-73
2021/07/27 04:05:48;;;;;;;57.83;2.50;;;14.70;83.80;;;;;;5077899;28;20578;-73
2021/07/27 04:08:15;;;;;;;58.03;2.57;;;14.60;83.70;;;;;;5077865;28;20742;-73
2021/07/27 04:10:43;;;;;;;58.17;2.60;;;14.60;83.80;;;;;;5077995;28;20448;-73
2021/07/27 04:13:11;;;;;;;58.03;2.50;;;14.60;84.20;;;;;;5077591;28;20496;-73
2021/07/27 04:15:44;;;;;;;58.23;2.80;;;14.60;84.40;;;;;;5077598;28;20827;-73
2021/07/27 04:18:11;;;;;;;58.40;2.80;;;14.50;84.80;;;;;;5076705;28;20537;-73
2021/07/27 04:20:38;;;;;;;58.47;2.90;;;14.60;86.10;;;;;;5077868;28;20944;-73
2021/07/27 04:23:05;;;;;;;58.50;3.10;;;14.60;88.70;;;;;;5077525;28;20458;-73
2021/07/27 04:25:33;;;;;;;58.73;3.30;;;14.60;89.20;;;;;;5077704;28;20489;-73
2021/07/27 04:28:02;;;;;;;58.70;3.00;;;14.60;89.90;;;;;;5077522;28;20454;-73
2021/07/27 04:30:29;;;;;;;58.40;3.00;;;14.60;90.20;;;;;;5077888;28;20538;-73
2021/07/27 04:32:55;;;;;;;57.93;2.63;;;14.60;90.30;;;;;;5077606;28;20448;-73
2021/07/27 04:35:22;;;;;;;58.17;2.90;;;14.60;90.40;;;;;;5077542;28;20464;-73
2021/07/27 04:37:52;;;;;;;58.03;2.67;;;14.60;90.40;;;;;;5075129;28;21027;-73
2021/07/27 04:40:19;;;;;;;58.27;2.80;;;14.60;90.70;;;;;;5074390;28;20450;-73
2021/07/27 04:42:46;;;;;;;58.37;2.73;;;14.60;90.80;;;;;;5073970;28;20509;-73
2021/07/27 04:45:14;;;;;;;58.27;2.50;;;14.60;90.60;;;;;;5074355;28;20913;-73
2021/07/27 04:47:41;;;;;;;58.40;2.93;;;14.60;90.70;;;;;;5074428;28;20826;-73
2021/07/27 04:50:09;;;;;;;58.63;3.40;;;14.60;90.70;;;;;;5073258;28;20542;-73
2021/07/27 04:52:37;;;;;;;58.47;2.70;;;14.60;90.80;;;;;;5055194;28;20449;-73
2021/07/27 04:55:05;;;;;;;57.97;2.80;;;14.60;91.30;;;;;;5053955;28;20890;-73
2021/07/27 04:57:33;;;;;;;58.30;2.60;;;14.60;91.40;;;;;;5054142;28;20488;-73
2021/07/27 05:00:00;;;;;;;58.27;2.60;;;14.70;91.90;;;;;;5054028;28;20448;-73
2021/07/27 05:02:28;;;;;;;58.47;2.90;;;14.80;92.60;;;;;;5053705;28;20460;-73
2021/07/27 05:04:55;;;;;;;58.30;2.60;;;14.80;92.90;;;;;;5053930;28;20472;-73
2021/07/27 05:07:22;;;;;;;58.27;2.60;;;14.90;93.10;;;;;;5053980;28;20572;-73
2021/07/27 05:09:49;;;;;;;57.97;2.67;;;14.90;93.40;;;;;;5054267;28;20532;-73
2021/07/27 05:12:16;;;;;;;58.03;2.67;;;15.00;93.40;;;;;;5053550;28;20976;-73
2021/07/27 05:14:43;;;;;;;58.17;2.67;;;15.00;93.90;;;;;;5053689;28;21002;-73
2021/07/27 05:17:12;;;;;;;58.70;2.83;;;15.00;93.80;;;;;;5054021;28;20484;-73
2021/07/27 05:19:50;;;;;;;58.37;2.60;;;15.10;93.60;;;;;;5052410;28;20469;-73
2021/07/27 05:22:16;;;;;;;58.20;2.60;;;15.10;93.60;;;;;;5059951;28;20462;-73
2021/07/27 05:24:43;;;;;;;58.03;2.90;;;15.20;93.40;;;;;;5073760;28;20493;-73
2021/07/27 05:27:10;;;;;;;57.93;2.47;;;15.20;93.20;;;;;;5073436;28;20572;-73
2021/07/27 05:29:37;;;;;;;58.30;2.50;;;15.20;93.00;;;;;;5073684;28;20545;-73
2021/07/27 05:32:05;;;;;;;57.97;2.90;;;15.30;92.80;;;;;;5073221;28;20475;-73
2021/07/27 05:34:31;;;;;;;58.20;2.60;;;15.30;92.50;;;;;;5073246;28;20441;-73
2021/07/27 05:37:00;;;;;;;58.47;2.83;;;15.40;92.20;;;;;;5073344;28;20527;-73
2021/07/27 05:39:27;;;;;;;57.97;2.70;;;15.40;91.80;;;;;;5073443;28;20882;-73
2021/07/27 05:41:53;;;;;;;58.03;2.73;;;15.50;91.60;;;;;;5073137;28;20884;-74
2021/07/27 05:44:24;;;;;;;57.87;2.80;;;15.50;91.40;;;;;;5073106;28;20491;-74
2021/07/27 05:46:51;;;;;;;58.07;2.80;;;15.60;91.30;;;;;;5073165;28;20486;-73
2021/07/27 05:49:19;;;;;;;57.77;2.57;;;15.60;91.30;;;;;;5072671;28;20451;-74
2021/07/27 05:51:46;;;;;;;58.13;2.70;;;15.70;91.40;;;;;;5071550;28;20518;-73
2021/07/27 05:54:15;;;;;;;58.90;2.70;;;15.70;91.50;;;;;;5073052;28;20518;-73
2021/07/27 05:56:42;;;;;;;57.87;2.60;;;15.80;91.60;;;;;;5072948;28;21021;-73
2021/07/27 05:59:09;;;;;;;58.97;4.10;;;15.90;91.70;;;;;;5072991;28;20444;-73
2021/07/27 06:01:35;;;;;;;58.27;2.70;;;15.90;91.80;;;;;;5072732;28;20477;-72
2021/07/27 06:04:02;;;;;;;58.60;3.33;;;16.00;91.80;;;;;;5072838;28;20977;-72
2021/07/27 06:06:32;;;;;;;58.17;3.00;;;16.10;92.00;;;;;;5072635;28;20977;-72
2021/07/27 06:09:01;;;;;;;58.40;3.10;;;16.20;92.00;;;;;;5072936;28;20531;-72
2021/07/27 06:11:29;;;;;;;58.10;2.53;;;16.30;92.30;;;;;;5072752;28;20449;-72
2021/07/27 06:13:56;;;;;;;58.30;3.20;;;16.40;92.50;;;;;;5072765;28;20810;-72
2021/07/27 06:16:23;;;;;;;58.30;2.60;;;16.50;92.70;;;;;;5072352;28;20549;-72
2021/07/27 06:18:50;;;;;;;58.17;2.63;;;16.60;92.90;;;;;;5072902;28;20450;-72
2021/07/27 06:21:17;;;;;;;58.60;3.63;;;16.80;93.70;;;;;;5072631;28;20449;-72
2021/07/27 06:23:44;;;;;;;58.17;2.53;;;16.90;93.50;;;;;;5055725;28;20453;-72
2021/07/27 06:26:10;;;;;;;58.37;2.70;;;17.10;91.90;;;;;;5052260;28;20522;-72
2021/07/27 06:28:39;;;;;;;58.40;2.70;;;17.30;91.20;;;;;;5052456;28;20470;-72
2021/07/27 06:31:11;;;;;;;58.07;2.60;;;17.40;90.00;;;;;;5052084;28;20543;-72
2021/07/27 06:33:38;;;;;;;58.03;2.80;;;17.60;86.10;;;;;;5052300;28;20451;-72
2021/07/27 06:36:05;;;;;;;58.20;2.87;;;17.70;80.30;;;;;;5052325;28;20467;-72
2021/07/27 06:38:32;;;;;;;57.87;2.60;;;17.90;75.60;;;;;;5052252;28;20486;-72
2021/07/27 06:40:59;;;;;;;58.00;2.43;;;18.00;70.90;;;;;;5052058;28;21011;-72
2021/07/27 06:43:26;;;;;;;57.87;2.63;;;18.10;60.80;;;;;;5051992;28;20455;-72
2021/07/27 06:45:54;;;;;;;58.23;2.60;;;18.10;37.50;;;;;;5052277;28;20902;-72
2021/07/27 06:48:21;;;;;;;58.20;3.00;;;18.10;20.70;;;;;;5052258;28;20458;-71
2021/07/27 06:50:48;;;;;;;58.97;3.13;;;18.10;11.80;;;;;;5052207;28;20463;-71
2021/07/27 06:53:27;;;;;;;57.97;2.70;;;18.10;6.90;;;;;;5056686;28;20482;-72
2021/07/27 06:55:56;;;;;;;58.70;3.17;;;18.10;3.80;;;;;;5071944;28;20448;-71
2021/07/27 06:58:23;;;;;;;58.20;2.63;;;18.20;1.60;;;;;;5071748;28;20947;-73
2021/07/27 07:00:50;;;;;;;58.30;2.70;;;18.20;1.00;;;;;;5071492;28;20526;-72
2021/07/27 07:03:18;;;;;;;58.53;3.20;;;18.20;1.00;;;;;;5071631;28;20490;-72
2021/07/27 07:05:45;;;;;;;57.93;2.70;;;18.30;1.00;;;;;;5071746;28;20510;-71
2021/07/27 07:08:12;;;;;;;58.03;2.67;;;18.40;1.00;;;;;;5071801;28;20490;-71
2021/07/27 07:10:39;;;;;;;59.10;3.30;;;18.40;1.00;;;;;;5071724;28;20462;-70
2021/07/27 07:13:06;;;;;;;57.93;2.53;;;18.50;1.00;;;;;;5071704;28;20455;-71
2021/07/27 07:15:33;;;;;;;58.27;2.60;;;18.60;1.00;;;;;;5071675;28;20510;-71
2021/07/27 07:18:00;;;;;;;58.07;2.60;;;18.70;1.00;;;;;;5071762;28;20446;-71
2021/07/27 07:20:29;;;;;;;58.03;2.43;;;18.60;1.00;;;;;;5071844;28;20559;-72
2021/07/27 07:22:56;;;;;;;58.07;2.57;;;18.70;1.00;;;;;;5071427;28;20471;-72
2021/07/27 07:25:23;;;;;;;58.40;2.90;;;18.80;1.00;;;;;;5071624;28;20904;-72
2021/07/27 07:27:50;;;;;;;58.20;2.50;;;18.90;1.00;;;;;;5071345;28;20987;-72
2021/07/27 07:30:17;;;;;;;58.13;2.37;;;18.90;1.00;;;;;;5071746;28;20458;-72
2021/07/27 07:32:44;;;;;;;58.00;2.63;;;19.00;1.00;;;;;;5071426;28;20447;-72
2021/07/27 07:35:12;;;;;;;57.47;2.40;;;19.20;1.00;;;;;;5071511;28;20477;-72
2021/07/27 07:37:40;;;;;;;58.30;2.50;;;19.30;1.00;;;;;;5071405;28;20828;-72
2021/07/27 07:40:09;;;;;;;58.20;2.80;;;19.40;1.00;;;;;;5071535;28;21030;-73
2021/07/27 07:42:36;;;;;;;58.60;2.80;;;19.50;1.00;;;;;;5071459;28;20839;-71
2021/07/27 07:45:04;;;;;;;58.37;2.67;;;19.60;1.00;;;;;;5070100;28;20510;-71
2021/07/27 07:47:31;;;;;;;58.07;2.30;;;19.60;1.00;;;;;;5064186;28;20480;-71
2021/07/27 07:49:59;;;;;;;58.17;2.80;;;19.50;1.00;;;;;;5051180;28;20499;-72
2021/07/27 07:52:27;;;;;;;58.37;2.40;;;19.50;1.00;;;;;;5050953;28;20487;-71
2021/07/27 07:54:55;;;;;;;57.67;2.30;;;19.60;1.00;;;;;;5051533;28;20508;-71
2021/07/27 07:57:25;;;;;;;58.10;2.50;;;19.60;1.00;;;;;;5051493;28;20573;-71
2021/07/27 07:59:52;;;;;;;58.17;2.80;;;19.70;1.00;;;;;;5050949;28;20456;-71
2021/07/27 08:02:20;;;;;;;57.97;2.50;;;19.70;1.00;;;;;;5050528;28;20968;-71
2021/07/27 08:04:47;;;;;;;58.53;2.60;;;19.70;1.00;;;;;;5050789;28;20993;-71
2021/07/27 08:07:14;;;;;;;58.50;2.90;;;19.70;1.00;;;;;;5051237;28;20481;-71
2021/07/27 08:09:42;;;;;;;57.87;2.70;;;19.90;1.00;;;;;;5051297;28;20457;-72
2021/07/27 08:12:13;;;;;;;58.23;2.90;;;20.00;1.00;;;;;;5051526;28;20454;-71
2021/07/27 08:14:41;;;;;;;57.73;2.30;;;20.30;1.00;;;;;;5054739;28;20481;-71
2021/07/27 08:17:08;;;;;;;58.10;2.60;;;20.50;1.00;;;;;;5053620;28;20458;-71
2021/07/27 08:19:35;;;;;;;57.97;2.40;;;20.70;1.00;;;;;;5054435;28;20456;-71
2021/07/27 08:22:02;;;;;;;58.03;2.30;;;20.90;1.00;;;;;;5054727;28;20855;-71
2021/07/27 08:24:31;;;;;;;58.20;2.67;;;21.00;1.00;;;;;;5054959;28;20487;-71
2021/07/27 08:26:58;;;;;;;58.30;2.90;;;21.20;1.00;;;;;;5054759;28;20581;-71
2021/07/27 08:29:27;;;;;;;58.50;2.70;;;21.40;1.00;;;;;;5054314;28;20517;-71
2021/07/27 08:31:54;;;;;;;58.20;2.63;;;21.50;1.00;;;;;;5054102;28;20527;-71
2021/07/27 08:34:21;;;;;;;58.07;2.30;;;21.60;1.00;;;;;;5054179;28;20460;-71
2021/07/27 08:36:48;;;;;;;58.50;2.70;;;21.70;1.00;;;;;;5054594;28;20452;-71
2021/07/27 08:39:16;;;;;;;58.50;2.90;;;21.80;1.00;;;;;;5054792;28;20483;-71
2021/07/27 08:41:46;;;;;;;58.60;2.60;;;21.90;1.00;;;;;;5054164;28;20491;-72
2021/07/27 08:44:19;;;;;;;58.00;2.40;;;21.80;1.00;;;;;;5054231;28;20456;-71
2021/07/27 08:46:51;;;;;;;58.37;2.70;;;21.90;1.00;;;;;;5055665;28;20477;-71
2021/07/27 08:49:18;;;;;;;57.97;2.60;;;22.10;1.00;;;;;;5074019;28;20461;-71
2021/07/27 08:51:46;;;;;;;58.27;2.70;;;22.10;1.00;;;;;;5074136;28;20466;-71
2021/07/27 08:54:16;;;;;;;58.30;2.30;;;22.20;1.00;;;;;;5074358;28;20455;-71
2021/07/27 08:56:47;;;;;;;58.30;2.87;;;22.20;1.00;;;;;;5073837;28;20539;-71
2021/07/27 08:59:15;;;;;;;58.57;2.40;;;22.30;1.00;;;;;;5074269;28;20474;-71
2021/07/27 09:01:42;;;;;;;58.67;2.53;;;22.40;1.00;;;;;;5073829;28;20456;-71
2021/07/27 09:04:11;;;;;;;58.53;2.90;;;22.40;1.00;;;;;;5074040;28;20456;-72
2021/07/27 09:06:38;;;;;;;57.83;2.70;;;22.30;1.00;;;;;;5073613;28;21021;-71
2021/07/27 09:09:07;;;;;;;57.93;2.40;;;22.30;1.00;;;;;;5074173;28;20806;-71
2021/07/27 09:11:44;;;;;;;58.10;3.00;;;22.40;1.00;;;;;;5073873;28;20456;-71
2021/07/27 09:14:15;;;;;;;58.23;2.60;;;22.50;1.00;;;;;;5074128;28;20451;-71
2021/07/27 09:16:45;;;;;;;58.40;2.90;;;22.60;1.00;;;;;;5074106;28;20559;-72
2021/07/27 09:19:14;;;;;;;58.17;2.47;;;22.80;1.00;;;;;;5056697;28;20554;-71
2021/07/27 09:21:42;;;;;;;58.23;2.80;;;22.80;1.00;;;;;;5071314;28;20946;-71
2021/07/27 09:24:10;;;;;;;58.07;2.53;;;22.90;1.00;;;;;;5072811;28;20978;-71
2021/07/27 09:26:38;;;;;;;58.30;2.53;;;22.80;1.00;;;;;;5073563;28;20493;-71
2021/07/27 09:29:06;;;;;;;58.07;2.50;;;22.90;1.00;;;;;;5073528;28;20509;-71
2021/07/27 09:31:38;;;;;;;58.27;2.60;;;23.00;1.00;;;;;;5073178;28;20463;-71
2021/07/27 09:34:12;;;;;;;58.00;2.33;;;23.20;1.00;;;;;;5073520;28;20487;-71
2021/07/27 09:36:40;;;;;;;57.93;2.37;;;23.50;1.00;;;;;;5073384;28;20532;-72
2021/07/27 09:39:08;;;;;;;57.97;2.77;;;23.80;1.00;;;;;;5073520;28;20462;-72
2021/07/27 09:41:35;;;;;;;57.80;2.40;;;24.10;1.00;;;;;;5072876;28;20537;-72
2021/07/27 09:44:07;;;;;;;58.37;2.87;;;24.20;1.00;;;;;;5073192;28;20483;-72
2021/07/27 09:46:35;;;;;;;58.07;2.50;;;24.30;1.00;;;;;;5073169;28;20558;-71
2021/07/27 09:49:02;;;;;;;57.73;2.20;;;24.30;1.00;;;;;;5073092;28;20578;-73
2021/07/27 09:51:30;;;;;;;57.83;2.43;;;24.30;1.00;;;;;;5072859;28;20453;-71
2021/07/27 09:53:59;;;;;;;58.40;2.83;;;24.40;1.00;;;;;;5073252;28;20525;-72
2021/07/27 09:56:26;;;;;;;59.23;3.03;;;24.40;1.00;;;;;;5073079;28;20495;-72
2021/07/27 09:58:53;;;;;;;58.40;3.27;;;24.30;1.00;;;;;;5072940;28;20952;-72
2021/07/27 10:01:23;;;;;;;57.77;2.30;;;24.40;1.00;;;;;;5072826;28;20531;-72
2021/07/27 10:03:54;;;;;;;57.80;2.40;;;24.70;1.00;;;;;;5072727;28;20554;-73
2021/07/27 10:06:27;;;;;;;58.17;2.50;;;25.00;1.00;;;;;;5072800;28;20560;-72
2021/07/27 10:09:01;;;;;;;58.50;2.80;;;25.30;1.00;;;;;;5072804;28;20527;-73
2021/07/27 10:11:38;;;;;;;57.97;2.50;;;25.80;1.00;;;;;;5072513;28;20485;-72
2021/07/27 10:14:08;;;;;;;58.17;2.40;;;26.20;1.00;;;;;;5072573;28;20529;-72
2021/07/27 10:16:35;;;;;;;57.87;2.20;;;26.30;1.00;;;;;;5072743;28;20467;-72
2021/07/27 10:19:15;;;;;;;58.30;2.97;;;26.40;1.00;;;;;;5072515;28;20951;-72
2021/07/27 10:21:45;;;;;;;57.87;2.40;;;27.00;1.00;;;;;;5072425;28;20509;-71
2021/07/27 10:24:16;;;;;;;57.77;2.47;;;27.80;1.00;;;;;;5072584;28;20459;-72
2021/07/27 10:26:44;;;;;;;58.07;2.70;;;28.70;1.00;;;;;;5072500;28;20932;-73
2021/07/27 10:29:11;;;;;;;58.50;2.23;;;29.30;1.00;;;;;;5072408;28;20479;-72
2021/07/27 10:31:39;;;;;;;57.80;2.60;;;29.60;1.00;;;;;;5072153;28;20452;-73
2021/07/27 10:34:08;;;;;;;57.77;2.30;;;29.70;1.00;;;;;;5072446;28;20535;-73
2021/07/27 10:36:36;;;;;;;57.80;2.27;;;29.40;1.00;;;;;;5071259;28;20464;-73
2021/07/27 10:39:11;;;;;;;57.80;2.20;;;29.20;1.00;;;;;;5072302;28;20895;-72
2021/07/27 10:41:42;;;;;;;57.90;2.70;;;28.70;1.00;;;;;;5072174;28;20451;-72
2021/07/27 10:44:11;;;;;;;57.77;2.30;;;28.20;1.00;;;;;;5072377;28;20451;-72
2021/07/27 10:46:40;;;;;;;57.80;2.20;;;28.30;1.00;;;;;;5072202;28;20476;-73
2021/07/27 10:49:13;;;;;;;57.90;1.97;;;28.70;1.00;;;;;;5072014;28;20603;-73
2021/07/27 10:51:46;;;;;;;58.00;2.50;;;29.40;1.00;;;;;;5072062;28;20434;-73
2021/07/27 10:54:15;;;;;;;57.77;2.50;;;29.90;1.00;;;;;;5072008;28;20933;-74
2021/07/27 10:56:56;;;;;;;57.60;2.40;;;30.30;1.00;;;;;;5071876;28;20469;-73
2021/07/27 10:59:24;;;;;;;57.80;2.20;;;30.30;1.00;;;;;;5072149;28;20540;-73
2021/07/27 11:01:58;;;;;;;58.30;2.50;;;30.00;1.00;;;;;;5071675;28;20462;-72
2021/07/27 11:04:29;;;;;;;57.60;2.30;;;29.50;1.00;;;;;;5072014;28;20475;-72
2021/07/27 11:07:11;;;;;;;57.90;2.60;;;29.70;1.00;;;;;;5072021;28;20445;-73
2021/07/27 11:09:47;;;;;;;58.70;2.93;;;30.20;1.00;;;;;;5071844;28;20460;-73
2021/07/27 11:12:26;;;;;;;58.10;2.80;;;30.80;1.00;;;;;;5071381;28;20445;-73
2021/07/27 11:15:04;;;;;;;58.17;2.80;;;31.50;1.00;;;;;;5071869;28;20821;-73
2021/07/27 11:17:31;;;;;;;57.67;2.10;;;31.80;1.00;;;;;;5071999;28;20496;-73
2021/07/27 11:20:00;;;;;;;57.97;2.73;;;32.00;1.00;;;;;;5071784;28;20523;-71
2021/07/27 11:22:27;;;;;;;57.90;2.53;;;32.30;1.00;;;;;;5071534;28;20488;-71
2021/07/27 11:24:55;;;;;;;58.50;2.40;;;32.50;1.00;;;;;;5071825;28;20509;-71
2021/07/27 11:27:30;;;;;;;58.57;2.90;;;32.50;1.00;;;;;;5071569;28;20479;-71
2021/07/27 11:29:58;;;;;;;57.43;2.40;;;32.70;1.00;;;;;;5071756;28;20529;-71
2021/07/27 11:32:26;;;;;;;58.73;3.03;;;32.80;1.00;;;;;;5071765;28;20451;-71
2021/07/27 11:34:57;;;;;;;57.87;2.30;;;32.70;1.00;;;;;;5071526;28;20477;-71
2021/07/27 11:37:27;;;;;;;58.20;2.40;;;32.90;1.00;;;;;;5071368;28;20458;-71
2021/07/27 11:39:55;;;;;;;57.97;2.83;;;33.40;1.00;;;;;;5071775;28;20542;-71
2021/07/27 11:42:30;;;;;;;57.63;2.30;;;33.20;1.00;;;;;;5070036;28;20451;-71
2021/07/27 11:45:00;;;;;;;57.90;2.67;;;32.70;1.00;;;;;;5071299;28;21023;-71
2021/07/27 11:47:40;;;;;;;59.00;3.07;;;32.20;1.00;;;;;;5072258;28;20458;-71
2021/07/27 11:50:08;;;;;;;57.87;2.70;;;31.50;1.00;;;;;;5075465;28;20493;-71
2021/07/27 11:52:35;;;;;;;57.60;2.33;;;31.10;1.00;;;;;;5075040;28;21005;-71
2021/07/27 11:55:03;;;;;;;57.37;2.17;;;30.70;1.00;;;;;;5075159;28;20589;-71
2021/07/27 11:57:34;;;;;;;57.97;2.63;;;30.20;1.00;;;;;;5075266;28;20805;-71
2021/07/27 12:00:11;;;;;;;57.67;2.20;;;29.70;1.00;;;;;;5074901;28;20546;-71
2021/07/27 12:02:39;;;;;;;58.27;2.83;;;29.00;1.00;;;;;;5074451;28;20524;-70
2021/07/27 12:05:06;;;;;;;58.00;2.60;;;28.60;1.00;;;;;;5075107;28;20510;-71
2021/07/27 12:07:33;;;;;;;57.90;2.37;;;28.40;1.00;;;;;;5074988;28;20461;-71
2021/07/27 12:10:00;;;;;;;57.67;2.43;;;28.40;1.00;;;;;;5074933;28;20733;-71
2021/07/27 12:12:27;;;;;;;58.30;2.50;;;28.50;1.00;;;;;;5074586;28;20455;-71
2021/07/27 12:14:56;;;;;;;57.73;2.43;;;28.60;1.00;;;;;;5058267;28;20511;-71
2021/07/27 12:17:22;;;;;;;57.80;2.10;;;28.40;1.00;;;;;;5054740;28;20456;-71
2021/07/27 12:19:49;;;;;;;58.90;2.87;;;28.30;1.00;;;;;;5054974;28;20480;-71
2021/07/27 12:22:17;;;;;;;57.97;2.30;;;28.30;1.00;;;;;;5054475;28;20463;-71
2021/07/27 12:24:44;;;;;;;57.97;2.50;;;28.30;1.00;;;;;;5054747;28;20560;-71
2021/07/27 12:27:11;;;;;;;57.97;2.20;;;28.40;1.00;;;;;;5054633;28;20743;-71
2021/07/27 12:29:38;;;;;;;59.17;2.17;;;28.60;1.00;;;;;;5054538;28;20534;-70
2021/07/27 12:32:07;;;;;;;57.67;2.10;;;28.90;1.00;;;;;;5054400;28;20808;-71
2021/07/27 12:34:34;;;;;;;57.77;2.10;;;29.00;1.00;;;;;;5054535;28;20543;-71
2021/07/27 12:37:01;;;;;;;58.13;2.50;;;29.10;1.00;;;;;;5054497;28;20460;-71
2021/07/27 12:39:28;;;;;;;57.10;1.80;;;29.10;1.00;;;;;;5054357;28;20491;-71
2021/07/27 12:41:56;;;;;;;59.03;2.20;;;29.20;1.00;;;;;;5053926;28;20971;-71
2021/07/27 12:44:23;;;;;;;57.77;2.30;;;29.50;1.00;;;;;;5054388;28;20436;-71
2021/07/27 12:46:50;;;;;;;57.80;2.33;;;30.00;1.00;;;;;;5070806;28;20488;-71
2021/07/27 12:49:20;;;;;;;58.13;2.13;;;30.60;1.00;;;;;;5054351;28;20517;-72
2021/07/27 12:51:48;;;;;;;59.00;3.03;;;31.10;1.00;;;;;;5054136;28;20483;-71
2021/07/27 12:54:14;;;;;;;57.57;2.30;;;31.80;1.00;;;;;;5053963;28;20454;-71
2021/07/27 12:56:41;;;;;;;57.90;2.60;;;32.30;1.00;;;;;;5054357;28;20472;-71
2021/07/27 12:59:09;;;;;;;58.67;3.43;;;32.40;1.00;;;;;;5053191;28;20527;-71
2021/07/27 13:01:36;;;;;;;57.60;2.10;;;32.40;1.00;;;;;;5054093;28;21036;-71